Time;durP1;ratioP1;P1;durP2;ratioP2;P2;SDS_P1;SDS_P2;PMS_P1;PMS_P2;Temp;Humidity;BMP_temperature;BMP_pressure;BME280_temperature;BME280_humidity;BME280_pressure;Samples;Min_cycle;Max_cycle;Signal;HPM_P1;HPM_P2
2021/04/28 00:01:53;;;;;;;12.35;5.88;;;;;;;11.10;63.26;93382.69;5127416;27;20498;-70
2021/04/28 00:04:19;;;;;;;11.18;5.85;;;;;;;11.07;63.32;93375.31;5131697;27;20030;-70
2021/04/28 00:06:48;;;;;;;12.80;5.35;;;;;;;11.03;63.46;93364.56;5116944;27;20035;-70
2021/04/28 00:09:14;;;;;;;9.20;4.65;;;;;;;10.96;63.35;93374.94;5132062;27;20023;-70
2021/04/28 00:11:40;;;;;;;13.82;5.78;;;;;;;10.95;63.15;93375.28;5133904;27;20033;-71
2021/04/28 00:14:07;;;;;;;19.23;6.10;;;;;;;10.92;63.15;93381.28;5132359;27;20035;-70
2021/04/28 00:16:34;;;;;;;18.48;6.85;;;;;;;10.94;63.09;93381.72;5133427;27;20029;-70
2021/04/28 00:18:59;;;;;;;21.30;7.05;;;;;;;10.91;63.01;93391.16;5133520;27;20121;-70
2021/04/28 00:21:26;;;;;;;18.20;6.70;;;;;;;10.88;62.90;93378.47;5129369;27;20123;-70
2021/04/28 00:23:51;;;;;;;20.27;6.93;;;;;;;10.82;62.89;93387.78;5128274;27;20023;-70
2021/04/28 00:26:17;;;;;;;30.48;10.55;;;;;;;10.81;63.22;93389.66;5132092;27;20204;-70
2021/04/28 00:28:46;;;;;;;23.50;8.23;;;;;;;10.81;63.39;93396.88;5133474;27;20011;-70
2021/04/28 00:31:12;;;;;;;31.17;10.02;;;;;;;10.79;63.22;93391.09;5131904;27;20029;-70
2021/04/28 00:33:38;;;;;;;36.13;10.18;;;;;;;10.81;63.18;93388.88;5133163;27;20023;-70
2021/04/28 00:36:04;;;;;;;21.50;9.20;;;;;;;10.75;63.47;93393.63;5133278;27;20027;-70
2021/04/28 00:38:30;;;;;;;20.52;7.43;;;;;;;10.67;63.73;93393.69;5133064;27;20019;-70
2021/04/28 00:40:55;;;;;;;18.67;6.43;;;;;;;10.71;63.76;93389.28;5133373;27;20037;-70
2021/04/28 00:43:22;;;;;;;12.02;4.95;;;;;;;10.76;63.45;93386.41;5132983;27;20051;-70
2021/04/28 00:45:47;;;;;;;15.85;6.03;;;;;;;10.76;63.05;93392.50;5132927;27;20031;-70
2021/04/28 00:48:13;;;;;;;20.45;5.75;;;;;;;10.80;63.05;93387.31;5133030;27;20386;-70
2021/04/28 00:50:42;;;;;;;16.15;7.10;;;;;;;10.78;63.48;93392.19;5132685;27;20031;-70
2021/04/28 00:53:09;;;;;;;13.10;5.70;;;;;;;10.79;63.24;93391.09;5132943;27;20030;-70
2021/04/28 00:55:35;;;;;;;16.85;5.47;;;;;;;10.70;63.50;93393.03;5132724;27;20054;-70
2021/04/28 00:58:02;;;;;;;12.40;5.20;;;;;;;10.74;63.72;93393.94;5132798;27;20061;-70
2021/04/28 01:00:28;;;;;;;14.02;7.10;;;;;;;10.73;63.62;93393.16;5131371;27;20115;-70
2021/04/28 01:02:54;;;;;;;16.65;6.93;;;;;;;10.73;63.99;93387.06;5131473;27;20040;-70
2021/04/28 01:05:20;;;;;;;14.77;6.10;;;;;;;10.74;63.98;93383.28;5114167;27;20074;-70
2021/04/28 01:07:48;;;;;;;13.32;5.88;;;;;;;10.73;64.32;93384.41;5130872;27;20019;-70
2021/04/28 01:10:21;;;;;;;13.20;5.85;;;;;;;10.76;64.29;93375.75;5132614;27;20080;-70
2021/04/28 01:12:47;;;;;;;11.73;5.18;;;;;;;10.77;64.30;93382.66;5132213;27;20023;-70
2021/04/28 01:15:15;;;;;;;12.23;4.57;;;;;;;10.77;63.48;93374.66;5131282;27;20042;-70
2021/04/28 01:17:41;;;;;;;9.32;4.85;;;;;;;10.78;63.88;93384.19;5129723;27;20075;-70
2021/04/28 01:20:10;;;;;;;10.73;4.80;;;;;;;10.79;63.88;93370.53;5132424;27;20142;-70
2021/04/28 01:22:43;;;;;;;11.82;5.15;;;;;;;10.88;63.82;93377.69;5112566;27;20130;-70
2021/04/28 01:25:11;;;;;;;11.57;5.43;;;;;;;10.89;63.66;93374.72;5126071;27;20156;-69
2021/04/28 01:27:39;;;;;;;14.45;5.70;;;;;;;10.92;63.37;93371.38;5131957;27;20131;-69
2021/04/28 01:30:07;;;;;;;11.10;5.13;;;;;;;10.92;63.36;93368.72;5126683;27;20148;-70
2021/04/28 01:32:33;;;;;;;15.88;5.10;;;;;;;10.95;63.15;93372.59;5132146;27;20093;-69
2021/04/28 01:35:01;;;;;;;18.55;7.03;;;;;;;10.95;62.89;93362.75;5128302;27;20027;-70
2021/04/28 01:37:28;;;;;;;28.10;7.10;;;;;;;10.99;63.11;93357.50;5127496;27;20011;-69
2021/04/28 01:39:55;;;;;;;26.02;8.02;;;;;;;11.02;63.03;93362.19;5130289;27;20058;-70
2021/04/28 01:42:22;;;;;;;23.05;6.95;;;;;;;11.00;62.83;93365.19;5132081;27;20546;-70
2021/04/28 01:44:50;;;;;;;17.08;5.53;;;;;;;10.98;62.61;93363.97;5131381;27;20474;-70
2021/04/28 01:47:18;;;;;;;16.65;5.25;;;;;;;10.93;62.53;93348.16;5130452;27;20026;-68
2021/04/28 01:49:45;;;;;;;14.35;3.97;;;;;;;10.90;62.67;93354.16;5131469;27;20063;-69
2021/04/28 01:52:11;;;;;;;12.43;4.40;;;;;;;10.91;62.70;93363.69;5131352;27;20023;-68
2021/04/28 01:54:37;;;;;;;11.18;3.88;;;;;;;10.90;62.17;93359.47;5131460;27;20039;-69
2021/04/28 01:57:03;;;;;;;8.40;4.03;;;;;;;10.89;62.54;93357.91;5131247;27;20370;-69
2021/04/28 01:59:29;;;;;;;11.23;4.88;;;;;;;10.87;63.02;93344.94;5131553;27;20023;-69
2021/04/28 02:01:56;;;;;;;14.38;6.28;;;;;;;10.83;63.71;93360.78;5129787;27;20530;-69
2021/04/28 02:04:22;;;;;;;18.17;5.30;;;;;;;10.85;63.40;93360.47;5130225;27;20023;-69
2021/04/28 02:06:49;;;;;;;11.05;4.68;;;;;;;10.82;63.28;93356.56;5128215;27;20046;-69
2021/04/28 02:09:15;;;;;;;9.05;4.03;;;;;;;10.80;63.46;93360.66;5110534;28;20058;-68
2021/04/28 02:11:41;;;;;;;14.00;4.55;;;;;;;10.83;63.32;93362.69;5110823;27;20460;-70
2021/04/28 02:14:07;;;;;;;10.50;4.22;;;;;;;10.85;63.14;93368.47;5110631;28;20479;-70
2021/04/28 02:16:37;;;;;;;12.40;4.45;;;;;;;10.86;63.07;93361.25;5110872;27;20421;-69
2021/04/28 02:19:05;;;;;;;15.85;5.90;;;;;;;10.87;62.99;93362.78;5129217;27;20020;-70
2021/04/28 02:21:31;;;;;;;15.02;4.07;;;;;;;10.86;63.23;93364.69;5129836;27;20039;-69
2021/04/28 02:23:56;;;;;;;6.32;4.15;;;;;;;10.67;63.59;93372.38;5130991;27;20026;-69
2021/04/28 02:26:22;;;;;;;16.20;4.25;;;;;;;10.41;64.10;93368.75;5129701;27;20026;-70
2021/04/28 02:28:47;;;;;;;9.40;4.03;;;;;;;10.16;65.26;93370.47;5129417;27;20459;-69
2021/04/28 02:31:13;;;;;;;9.02;4.38;;;;;;;10.19;65.50;93374.34;5129459;27;20015;-70
2021/04/28 02:33:39;;;;;;;13.95;4.82;;;;;;;10.21;65.80;93380.13;5130007;27;20099;-70
2021/04/28 02:36:04;;;;;;;9.02;4.20;;;;;;;10.23;64.82;93370.72;5119791;27;20036;-70
2021/04/28 02:38:53;;;;;;;12.40;4.45;;;;;;;10.23;65.06;93370.72;5110273;28;20019;-70
2021/04/28 02:41:21;;;;;;;10.35;4.53;;;;;;;10.25;64.94;93373.84;5126014;27;20065;-70
2021/04/28 02:43:48;;;;;;;8.45;4.60;;;;;;;10.29;65.21;93373.97;5125860;27;20482;-70
2021/04/28 02:46:16;;;;;;;11.63;4.60;;;;;;;10.29;65.24;93378.53;5130566;27;20053;-70
2021/04/28 02:48:44;;;;;;;21.75;7.15;;;;;;;10.35;64.92;93379.94;5129403;27;20391;-70
2021/04/28 02:51:11;;;;;;;17.98;6.22;;;;;;;10.41;64.98;93375.97;5129557;28;20103;-70
2021/04/28 02:53:37;;;;;;;15.88;5.82;;;;;;;10.41;65.23;93378.66;5130763;27;20450;-70
2021/04/28 02:56:03;;;;;;;20.00;6.43;;;;;;;10.44;64.83;93381.44;5130744;27;20035;-70
2021/04/28 02:58:29;;;;;;;18.67;6.18;;;;;;;10.45;64.61;93390.22;5129210;27;20520;-70
2021/04/28 03:00:57;;;;;;;22.52;6.95;;;;;;;10.40;64.78;93391.19;5129549;27;20027;-69
2021/04/28 03:03:23;;;;;;;22.15;6.93;;;;;;;10.38;65.06;93393.41;5130346;27;20027;-69
2021/04/28 03:05:53;;;;;;;18.10;6.90;;;;;;;10.37;65.16;93393.72;5129523;28;20558;-69
2021/04/28 03:08:22;;;;;;;13.48;6.45;;;;;;;10.32;64.93;93396.56;5129254;28;20054;-69
2021/04/28 03:10:48;;;;;;;16.50;7.25;;;;;;;10.28;65.19;93393.75;5125456;27;20512;-69
2021/04/28 03:13:14;;;;;;;13.32;5.60;;;;;;;10.25;65.49;93394.38;5130924;27;20019;-69
2021/04/28 03:15:41;;;;;;;15.77;6.78;;;;;;;10.23;65.74;93400.00;5129176;27;20493;-69
2021/04/28 03:18:07;;;;;;;16.33;5.82;;;;;;;10.20;65.33;93408.66;5129398;28;20046;-69
2021/04/28 03:20:35;;;;;;;21.38;8.30;;;;;;;10.14;65.43;93409.94;5130468;27;20505;-69
2021/04/28 03:23:02;;;;;;;14.90;5.00;;;;;;;10.10;65.57;93409.03;5130304;27;20072;-69
2021/04/28 03:25:27;;;;;;;13.93;6.45;;;;;;;10.09;65.73;93415.44;5129758;27;20027;-69
2021/04/28 03:27:53;;;;;;;15.15;6.75;;;;;;;10.11;65.71;93415.91;5128718;28;20534;-69
2021/04/28 03:30:19;;;;;;;23.23;7.00;;;;;;;10.13;65.62;93407.59;5128472;27;20102;-68
2021/04/28 03:32:45;;;;;;;21.80;8.07;;;;;;;10.16;65.52;93415.72;5128539;28;20023;-69
2021/04/28 03:35:11;;;;;;;23.90;9.23;;;;;;;10.15;65.21;93421.38;5130064;27;20011;-69
2021/04/28 03:37:37;;;;;;;23.08;10.23;;;;;;;10.11;65.50;93415.91;5128315;27;20019;-69
2021/04/28 03:40:07;;;;;;;31.65;12.10;;;;;;;10.12;65.22;93412.16;5146129;27;20474;-68
2021/04/28 03:42:33;;;;;;;22.52;8.68;;;;;;;10.11;65.30;93429.22;5133547;27;20023;-69
2021/04/28 03:44:58;;;;;;;32.13;10.85;;;;;;;10.10;65.59;93426.91;5133917;27;20050;-69
2021/04/28 03:47:24;;;;;;;21.67;8.20;;;;;;;10.07;65.66;93433.63;5149116;27;20026;-69
2021/04/28 03:49:49;;;;;;;19.75;8.43;;;;;;;10.05;65.63;93425.16;5133301;27;20027;-69
2021/04/28 03:52:15;;;;;;;19.17;7.60;;;;;;;10.10;65.56;93440.97;5117990;27;20031;-69
2021/04/28 03:54:40;;;;;;;19.90;7.85;;;;;;;10.16;64.95;93436.25;5114599;27;20020;-68
2021/04/28 03:57:06;;;;;;;22.08;7.63;;;;;;;10.09;65.22;93438.63;5113823;27;20023;-70
2021/04/28 03:59:33;;;;;;;18.83;7.03;;;;;;;10.16;64.80;93445.03;5130514;27;20038;-69
2021/04/28 04:01:58;;;;;;;13.25;6.70;;;;;;;10.21;64.72;93442.16;5133582;27;20026;-69
2021/04/28 04:04:23;;;;;;;18.40;7.55;;;;;;;10.28;64.14;93438.22;5133638;27;20033;-70
2021/04/28 04:06:49;;;;;;;16.35;6.80;;;;;;;10.31;64.33;93429.63;5148926;27;20097;-69
2021/04/28 04:09:14;;;;;;;15.25;7.25;;;;;;;10.33;64.12;93433.53;5133829;27;20397;-69
2021/04/28 04:11:40;;;;;;;17.25;5.90;;;;;;;10.38;63.65;93435.22;5133511;27;20037;-69
2021/04/28 04:14:05;;;;;;;19.05;6.10;;;;;;;10.42;63.66;93436.13;5131934;27;20031;-69
2021/04/28 04:16:31;;;;;;;10.05;6.30;;;;;;;10.45;63.73;93446.16;5133542;27;20033;-69
2021/04/28 04:18:56;;;;;;;16.70;7.80;;;;;;;10.48;63.87;93448.19;5132977;27;20113;-69
2021/04/28 04:21:21;;;;;;;13.98;7.95;;;;;;;10.52;63.55;93456.31;5133452;27;20485;-69
2021/04/28 04:23:47;;;;;;;10.40;5.70;;;;;;;10.63;62.62;93444.97;5131646;27;20034;-69
2021/04/28 04:26:14;;;;;;;16.48;6.85;;;;;;;10.75;60.92;93448.84;5133700;27;20023;-69
2021/04/28 04:28:40;;;;;;;14.90;5.68;;;;;;;10.88;60.49;93458.44;5133137;27;20042;-69
2021/04/28 04:31:05;;;;;;;13.63;5.88;;;;;;;11.00;60.35;93450.53;5133058;27;20026;-70
2021/04/28 04:33:31;;;;;;;23.20;7.50;;;;;;;11.17;59.55;93459.50;5131888;27;20027;-69
2021/04/28 04:35:56;;;;;;;13.63;6.32;;;;;;;11.30;58.11;93457.69;5125968;27;20023;-69
2021/04/28 04:38:22;;;;;;;16.35;6.55;;;;;;;11.45;57.62;93463.19;5133360;27;20030;-69
2021/04/28 04:40:47;;;;;;;13.52;4.90;;;;;;;11.50;56.95;93456.88;5133070;27;20478;-69
2021/04/28 04:43:13;;;;;;;18.25;6.07;;;;;;;11.53;57.75;93455.44;5131435;27;20553;-69
2021/04/28 04:45:38;;;;;;;13.02;6.70;;;;;;;11.60;58.91;93472.50;5132987;27;20034;-68
2021/04/28 04:48:06;;;;;;;26.30;8.35;;;;;;;11.65;57.69;93463.47;5128579;27;20395;-69
2021/04/28 04:50:32;;;;;;;13.90;6.75;;;;;;;11.64;58.10;93462.72;5127598;27;20031;-69
2021/04/28 04:52:57;;;;;;;23.30;7.28;;;;;;;11.62;58.53;93475.59;5127975;27;20409;-69
2021/04/28 04:55:23;;;;;;;18.58;6.93;;;;;;;11.59;58.13;93475.47;5112967;28;20482;-68
2021/04/28 04:57:49;;;;;;;13.80;6.47;;;;;;;11.58;58.55;93487.25;5129992;27;20027;-68
2021/04/28 05:00:15;;;;;;;12.18;6.35;;;;;;;11.49;57.89;93491.91;5132942;27;20023;-68
2021/04/28 05:02:41;;;;;;;16.85;5.78;;;;;;;11.49;58.25;93487.34;5128213;27;20107;-68
2021/04/28 05:05:07;;;;;;;13.07;6.03;;;;;;;11.56;58.12;93478.78;5112317;28;20080;-68
2021/04/28 05:07:33;;;;;;;19.10;6.85;;;;;;;11.67;57.66;93463.94;5129355;27;20023;-68
2021/04/28 05:09:58;;;;;;;17.45;6.65;;;;;;;11.79;57.62;93473.88;5129667;27;20027;-68
2021/04/28 05:12:24;;;;;;;16.45;5.80;;;;;;;11.91;56.90;93468.59;5129992;27;20027;-68
2021/04/28 05:14:49;;;;;;;23.17;5.78;;;;;;;12.05;56.38;93470.97;5124115;27;20042;-68
2021/04/28 05:17:15;;;;;;;14.18;5.40;;;;;;;12.18;55.54;93453.84;5132138;27;20095;-68
2021/04/28 05:19:40;;;;;;;16.08;4.65;;;;;;;12.31;53.49;93467.19;5129949;27;20027;-69
2021/04/28 05:22:06;;;;;;;17.27;5.20;;;;;;;12.41;53.20;93466.75;5127779;27;20369;-68
2021/04/28 05:24:31;;;;;;;22.35;5.20;;;;;;;12.51;52.75;93481.59;5126267;27;20027;-68
2021/04/28 05:26:57;;;;;;;11.05;5.60;;;;;;;12.60;52.35;93499.09;5111884;28;20099;-69
2021/04/28 05:29:22;;;;;;;14.48;4.10;;;;;;;12.73;51.56;93493.72;5111421;28;20444;-69
2021/04/28 05:31:47;;;;;;;9.02;4.25;;;;;;;12.83;51.02;93498.63;5127760;27;20023;-69
2021/04/28 05:34:13;;;;;;;14.55;5.68;;;;;;;12.96;50.39;93491.38;5116061;27;20158;-68
2021/04/28 05:36:39;;;;;;;12.77;6.10;;;;;;;13.08;49.87;93483.31;5127421;27;20110;-68
2021/04/28 05:39:04;;;;;;;12.30;4.68;;;;;;;13.22;49.85;93488.31;5118585;27;20023;-69
2021/04/28 05:41:30;;;;;;;12.93;4.53;;;;;;;13.32;49.79;93477.16;5129886;27;20039;-69
2021/04/28 05:43:56;;;;;;;8.15;4.13;;;;;;;13.44;49.23;93465.66;5128193;27;20158;-68
2021/04/28 05:46:22;;;;;;;6.30;3.90;;;;;;;13.52;48.40;93459.38;5130094;27;20027;-68
2021/04/28 05:48:47;;;;;;;13.88;4.22;;;;;;;13.61;48.63;93441.25;5129424;27;20050;-69
2021/04/28 05:51:13;;;;;;;12.63;4.45;;;;;;;13.74;48.20;93439.31;5111584;28;20034;-69
2021/04/28 05:53:39;;;;;;;8.82;3.95;;;;;;;13.88;47.97;93449.63;5126673;27;20110;-69
2021/04/28 05:56:06;;;;;;;15.90;4.78;;;;;;;13.99;47.38;93444.53;5110958;28;20553;-69
2021/04/28 05:58:32;;;;;;;16.70;5.13;;;;;;;14.05;47.19;93437.78;5118794;27;20110;-69
2021/04/28 06:00:58;;;;;;;8.70;3.80;;;;;;;14.14;47.05;93441.06;5131455;27;20067;-68
2021/04/28 06:03:23;;;;;;;24.60;4.55;;;;;;;14.25;46.23;93454.75;5129003;27;20508;-69
2021/04/28 06:05:49;;;;;;;20.08;4.50;;;;;;;14.32;45.34;93444.19;5112309;27;20106;-68
2021/04/28 06:08:16;;;;;;;13.45;4.20;;;;;;;14.40;45.36;93443.22;5130246;27;20162;-68
2021/04/28 06:10:42;;;;;;;20.05;4.60;;;;;;;14.46;44.74;93446.44;5119476;27;20402;-68
2021/04/28 06:13:07;;;;;;;11.70;4.70;;;;;;;14.49;45.33;93447.63;5130112;27;20023;-69
2021/04/28 06:15:33;;;;;;;17.20;4.43;;;;;;;14.53;44.77;93451.19;5128811;27;20487;-69
2021/04/28 06:17:58;;;;;;;12.93;3.97;;;;;;;14.57;43.51;93455.56;5131417;27;20019;-68
2021/04/28 06:20:24;;;;;;;12.85;4.03;;;;;;;14.62;44.12;93468.69;5131536;27;20015;-68
2021/04/28 06:22:49;;;;;;;15.43;4.80;;;;;;;14.70;44.62;93466.94;5129152;27;20501;-69
2021/04/28 06:25:16;;;;;;;14.70;5.70;;;;;;;14.76;44.29;93465.56;5126938;27;20118;-69
2021/04/28 06:27:42;;;;;;;14.85;4.65;;;;;;;14.85;44.63;93468.81;5127551;27;20432;-70
2021/04/28 06:30:09;;;;;;;12.65;5.10;;;;;;;14.90;44.58;93475.84;5128832;27;20046;-69
2021/04/28 06:32:37;;;;;;;17.13;4.90;;;;;;;14.99;45.27;93472.97;5127586;27;20011;-68
2021/04/28 06:35:04;;;;;;;9.50;5.30;;;;;;;15.02;44.35;93474.94;5129383;27;20037;-68
2021/04/28 06:37:30;;;;;;;18.92;4.07;;;;;;;15.05;44.08;93475.00;5130171;27;20105;-69
2021/04/28 06:39:55;;;;;;;11.45;4.88;;;;;;;15.08;44.22;93470.06;5129295;27;20463;-69
2021/04/28 06:42:21;;;;;;;15.05;4.80;;;;;;;15.01;44.88;93487.56;5129963;27;20507;-69
2021/04/28 06:44:47;;;;;;;10.48;4.20;;;;;;;15.09;43.96;93485.84;5130901;27;20066;-69
2021/04/28 06:47:14;;;;;;;9.63;4.57;;;;;;;15.15;43.62;93492.47;5129837;28;20027;-68
2021/04/28 06:49:39;;;;;;;12.80;4.47;;;;;;;15.10;44.30;93492.78;5129617;28;20093;-68
2021/04/28 06:52:05;;;;;;;9.70;4.47;;;;;;;15.17;44.40;93492.16;5119351;28;20067;-68
2021/04/28 06:54:30;;;;;;;15.25;5.22;;;;;;;15.25;43.78;93493.84;5125754;27;20397;-68
2021/04/28 06:56:56;;;;;;;11.27;5.40;;;;;;;15.32;43.38;93504.72;5126476;28;20371;-68
2021/04/28 06:59:22;;;;;;;11.25;4.78;;;;;;;15.32;43.50;93496.66;5128212;27;20019;-68
2021/04/28 07:01:53;;;;;;;7.93;4.25;;;;;;;15.27;43.84;93499.66;5129858;28;20027;-68
2021/04/28 07:04:19;;;;;;;13.05;4.53;;;;;;;15.32;43.91;93501.28;5129380;27;20027;-69
2021/04/28 07:06:46;;;;;;;9.85;3.97;;;;;;;15.39;43.38;93499.53;5119950;27;20072;-68
2021/04/28 07:09:12;;;;;;;16.33;4.38;;;;;;;15.47;43.33;93505.81;5129926;27;20126;-68
2021/04/28 07:11:37;;;;;;;14.93;4.53;;;;;;;15.52;43.12;93502.06;5124134;27;20135;-68
2021/04/28 07:14:03;;;;;;;11.63;4.60;;;;;;;15.61;42.33;93497.25;5126025;28;20069;-68
2021/04/28 07:16:28;;;;;;;8.00;4.13;;;;;;;15.68;42.61;93504.72;5113766;28;20027;-68
2021/04/28 07:18:54;;;;;;;11.05;4.25;;;;;;;15.67;42.05;93503.91;5114279;28;20024;-68
2021/04/28 07:21:20;;;;;;;12.95;4.38;;;;;;;15.69;42.29;93507.00;5122672;27;20456;-69
2021/04/28 07:23:45;;;;;;;10.90;4.88;;;;;;;15.73;41.76;93505.22;5129347;27;20099;-68
2021/04/28 07:26:12;;;;;;;11.25;4.03;;;;;;;15.71;41.78;93507.44;5140426;27;20051;-68
2021/04/28 07:28:37;;;;;;;10.60;4.68;;;;;;;15.80;42.35;93516.13;5121108;27;20439;-70
2021/04/28 07:31:03;;;;;;;8.95;4.10;;;;;;;15.88;42.55;93519.72;5132771;27;20019;-69
2021/04/28 07:33:29;;;;;;;9.73;4.20;;;;;;;15.98;41.78;93515.69;5132770;27;20019;-68
2021/04/28 07:35:54;;;;;;;15.13;4.75;;;;;;;15.93;41.64;93507.91;5133482;27;20079;-68
2021/04/28 07:38:20;;;;;;;16.17;4.10;;;;;;;16.01;41.81;93510.34;5133270;27;20019;-68
2021/04/28 07:40:45;;;;;;;17.20;4.60;;;;;;;16.07;42.11;93512.78;5134297;27;20462;-67
2021/04/28 07:43:11;;;;;;;28.77;5.50;;;;;;;16.15;42.20;93512.53;5133327;27;20390;-68
2021/04/28 07:45:37;;;;;;;12.82;4.60;;;;;;;16.24;42.37;93512.31;5132054;27;20361;-68
2021/04/28 07:48:08;;;;;;;7.78;3.92;;;;;;;16.35;41.77;93512.50;5128103;27;20092;-69
2021/04/28 07:50:38;;;;;;;13.27;4.93;;;;;;;16.34;41.64;93514.41;5130617;27;20027;-68
2021/04/28 07:53:04;;;;;;;13.48;5.28;;;;;;;16.42;41.29;93515.31;5127533;27;20031;-68
2021/04/28 07:55:30;;;;;;;7.70;4.35;;;;;;;16.53;41.80;93508.22;5132726;27;20023;-67
2021/04/28 07:57:56;;;;;;;17.67;5.68;;;;;;;16.61;41.44;93504.50;5133964;27;20041;-69
2021/04/28 08:00:22;;;;;;;9.10;4.38;;;;;;;16.70;40.86;93500.81;5118692;27;20023;-69
2021/04/28 08:02:47;;;;;;;12.88;4.45;;;;;;;16.76;41.11;93510.88;5113617;28;20073;-68
2021/04/28 08:05:13;;;;;;;14.73;4.13;;;;;;;16.84;41.05;93501.81;5131970;27;20026;-68
2021/04/28 08:07:38;;;;;;;10.13;4.07;;;;;;;16.90;40.94;93505.00;5133710;27;20519;-69
2021/04/28 08:10:05;;;;;;;11.68;4.20;;;;;;;16.99;40.92;93502.81;5129935;27;20048;-68
2021/04/28 08:12:30;;;;;;;9.35;4.10;;;;;;;16.94;40.41;93516.59;5129408;27;20019;-68
2021/04/28 08:14:56;;;;;;;12.10;4.85;;;;;;;17.01;41.41;93513.22;5133730;27;20023;-69
2021/04/28 08:17:22;;;;;;;10.05;4.88;;;;;;;17.07;40.41;93508.31;5132370;27;20019;-69
2021/04/28 08:19:47;;;;;;;12.25;4.57;;;;;;;17.14;40.28;93508.44;5133391;27;20503;-68
2021/04/28 08:22:13;;;;;;;11.73;4.53;;;;;;;17.12;40.17;93505.31;5133396;27;20072;-69
2021/04/28 08:24:38;;;;;;;12.85;4.28;;;;;;;17.16;41.29;93496.16;5132083;27;20049;-69
2021/04/28 08:27:05;;;;;;;17.00;5.00;;;;;;;17.32;40.69;93492.50;5112363;28;20020;-70
2021/04/28 08:29:30;;;;;;;15.63;4.40;;;;;;;17.19;40.32;93490.03;5131805;27;20026;-69
2021/04/28 08:31:56;;;;;;;17.10;5.00;;;;;;;17.21;40.43;93484.28;5115656;27;20415;-69
2021/04/28 08:34:21;;;;;;;26.80;7.28;;;;;;;17.17;41.01;93483.44;5117130;27;20023;-69
2021/04/28 08:36:47;;;;;;;23.75;5.28;;;;;;;17.21;40.99;93492.34;5127701;27;20030;-70
2021/04/28 08:39:13;;;;;;;14.00;5.00;;;;;;;17.27;40.37;93488.22;5127982;27;20015;-70
2021/04/28 08:41:38;;;;;;;11.38;3.92;;;;;;;17.34;39.84;93490.22;5112037;27;20055;-69
2021/04/28 08:44:06;;;;;;;8.57;4.50;;;;;;;17.42;39.72;93487.28;5113376;27;20026;-70
2021/04/28 08:46:32;;;;;;;9.40;4.78;;;;;;;17.52;40.48;93477.75;5127316;27;20032;-69
2021/04/28 08:48:57;;;;;;;18.08;4.38;;;;;;;17.47;40.83;93488.09;5127775;27;20050;-69
2021/04/28 08:51:23;;;;;;;9.00;4.63;;;;;;;17.57;40.09;93476.69;5136654;27;20027;-69
2021/04/28 08:53:50;;;;;;;9.75;4.57;;;;;;;17.67;39.54;93481.41;5130209;27;20479;-69
2021/04/28 08:56:15;;;;;;;13.95;4.35;;;;;;;17.73;39.58;93477.25;5127713;27;20038;-70
2021/04/28 08:58:42;;;;;;;11.00;3.92;;;;;;;17.89;40.12;93477.09;5111933;28;20023;-68
2021/04/28 09:01:08;;;;;;;11.65;3.95;;;;;;;18.04;39.71;93476.09;5130178;27;20039;-69
2021/04/28 09:03:42;;;;;;;14.07;4.28;;;;;;;18.11;39.43;93483.47;5127927;27;20031;-69
2021/04/28 09:06:37;;;;;;;21.90;5.18;;;;;;;18.30;39.36;93489.81;5132658;27;20050;-68
2021/04/28 09:09:20;;;;;;;20.98;5.22;;;;;;;18.39;39.36;93479.50;5115020;27;20394;-68
2021/04/28 09:11:46;;;;;;;7.47;4.18;;;;;;;18.47;38.35;93475.72;5111545;28;20023;-70
2021/04/28 09:14:15;;;;;;;16.83;4.95;;;;;;;18.33;39.12;93484.47;5111195;28;20084;-69
2021/04/28 09:16:59;;;;;;;12.60;4.28;;;;;;;18.45;38.59;93475.31;5130301;27;20035;-68
2021/04/28 09:19:35;;;;;;;11.18;4.85;;;;;;;18.35;38.39;93476.00;5132163;27;20102;-68
2021/04/28 09:22:06;;;;;;;9.15;4.22;;;;;;;18.44;38.49;93473.78;5130953;27;20031;-69
2021/04/28 09:24:37;;;;;;;9.77;4.03;;;;;;;18.62;38.91;93468.53;5128097;27;20470;-68
2021/04/28 09:27:04;;;;;;;9.27;4.15;;;;;;;18.72;37.96;93461.66;5130368;27;20023;-69
2021/04/28 09:29:34;;;;;;;12.70;4.70;;;;;;;18.81;38.63;93459.47;5131510;27;20019;-69
2021/04/28 09:32:01;;;;;;;8.95;3.78;;;;;;;18.68;38.04;93460.84;5128052;27;20113;-69
2021/04/28 09:34:29;;;;;;;10.77;4.00;;;;;;;18.84;38.43;93456.00;5126871;27;20031;-69
2021/04/28 09:37:13;;;;;;;11.35;4.20;;;;;;;18.97;37.48;93457.25;5129259;27;20019;-68
2021/04/28 09:39:51;;;;;;;17.55;5.15;;;;;;;19.01;38.19;93463.47;5130157;27;20058;-68
2021/04/28 09:42:18;;;;;;;12.73;4.18;;;;;;;18.84;37.32;93456.00;5120893;27;20107;-68
2021/04/28 09:44:54;;;;;;;9.35;3.75;;;;;;;19.02;37.50;93446.09;5129462;27;20501;-70
2021/04/28 09:47:25;;;;;;;5.95;3.80;;;;;;;19.06;37.49;93437.25;5130914;27;20035;-71
2021/04/28 09:50:00;;;;;;;19.17;4.85;;;;;;;19.21;38.32;93450.47;5119988;27;20039;-70
2021/04/28 09:52:29;;;;;;;11.80;4.47;;;;;;;19.38;37.63;93448.25;5124378;27;20035;-70
2021/04/28 09:54:57;;;;;;;10.02;3.83;;;;;;;19.57;37.14;93439.03;5109410;28;20031;-69
2021/04/28 09:57:44;;;;;;;9.85;4.60;;;;;;;19.68;36.71;93434.44;5129134;27;20023;-70
2021/04/28 10:00:23;;;;;;;10.15;4.30;;;;;;;19.62;36.57;93433.25;5128207;27;20023;-70
2021/04/28 10:03:08;;;;;;;15.57;3.63;;;;;;;19.72;36.57;93429.09;5115626;27;20084;-70
2021/04/28 10:05:40;;;;;;;14.38;4.07;;;;;;;19.86;36.09;93425.66;5128637;27;20035;-70
2021/04/28 10:08:07;;;;;;;7.43;3.58;;;;;;;19.67;36.30;93427.50;5130442;27;20489;-70
2021/04/28 10:10:33;;;;;;;8.82;3.53;;;;;;;19.51;35.78;93418.94;5131501;27;20023;-69
2021/04/28 10:12:59;;;;;;;12.27;3.92;;;;;;;19.54;36.26;93418.16;5131612;27;20110;-70
2021/04/28 10:15:24;;;;;;;9.57;4.13;;;;;;;19.67;36.73;93422.09;5130702;27;20144;-70
2021/04/28 10:17:51;;;;;;;25.25;4.50;;;;;;;19.84;36.24;93424.13;5130487;27;20072;-70
2021/04/28 10:20:17;;;;;;;10.27;4.20;;;;;;;20.01;36.45;93425.31;5130492;27;20027;-70
2021/04/28 10:22:44;;;;;;;8.75;3.80;;;;;;;20.15;35.84;93421.88;5130103;27;20373;-69
2021/04/28 10:25:11;;;;;;;7.38;3.85;;;;;;;20.30;35.04;93402.94;5129308;27;20019;-70
2021/04/28 10:27:38;;;;;;;19.02;3.65;;;;;;;20.41;35.30;93414.53;5125711;27;20035;-70
2021/04/28 10:30:05;;;;;;;26.30;4.38;;;;;;;20.58;35.37;93416.50;5128448;27;20034;-69
2021/04/28 10:32:31;;;;;;;14.55;4.18;;;;;;;20.79;34.98;93402.19;5117382;27;20022;-70
2021/04/28 10:35:18;;;;;;;6.55;3.80;;;;;;;20.95;34.40;93404.47;5110539;28;20023;-70
2021/04/28 10:37:50;;;;;;;8.75;4.05;;;;;;;20.83;34.51;93397.53;5120019;27;20031;-70
2021/04/28 10:40:18;;;;;;;10.63;3.20;;;;;;;20.70;33.64;93401.81;5131065;27;20031;-69
2021/04/28 10:42:44;;;;;;;8.07;3.58;;;;;;;20.86;34.23;93412.22;5128957;27;20114;-69
2021/04/28 10:45:11;;;;;;;8.63;3.50;;;;;;;20.92;34.03;93405.25;5129745;27;20043;-70
2021/04/28 10:47:42;;;;;;;17.75;4.03;;;;;;;20.96;34.07;93402.53;5129057;28;20031;-70
2021/04/28 10:50:27;;;;;;;12.32;4.40;;;;;;;21.20;34.50;93414.50;5129333;27;20027;-70
2021/04/28 10:53:07;;;;;;;9.20;3.65;;;;;;;21.44;33.22;93410.97;5127221;27;20418;-70
2021/04/28 10:55:41;;;;;;;17.55;4.03;;;;;;;21.64;33.06;93388.81;5126679;27;20029;-70
2021/04/28 10:58:25;;;;;;;9.38;3.05;;;;;;;21.67;33.26;93392.66;5128199;27;20019;-70
2021/04/28 11:01:14;;;;;;;5.72;3.63;;;;;;;21.66;32.71;93388.41;5128894;28;20486;-69
2021/04/28 11:03:56;;;;;;;6.35;3.67;;;;;;;21.63;33.30;93395.41;5127300;27;20110;-70
2021/04/28 11:08:49;;;;;;;13.30;4.20;;;;;;;21.80;32.28;93382.94;5124784;27;20110;-70
2021/04/28 11:11:42;;;;;;;8.05;3.15;;;;;;;21.92;32.60;93382.47;5124063;28;20027;-70
2021/04/28 11:16:45;;;;;;;5.55;3.13;;;;;;;22.02;31.78;93368.06;5125262;28;20400;-69
2021/04/28 11:19:22;;;;;;;12.30;3.95;;;;;;;22.24;32.53;93360.56;5121978;27;20039;-70
2021/04/28 11:22:07;;;;;;;11.70;3.67;;;;;;;22.40;31.36;93356.56;5130220;27;20034;-69
2021/04/28 11:24:57;;;;;;;8.85;3.85;;;;;;;22.55;31.27;93358.00;5127204;28;20030;-69
2021/04/28 11:27:44;;;;;;;9.45;3.15;;;;;;;22.68;31.22;93355.56;5128284;28;20152;-69
2021/04/28 11:30:28;;;;;;;7.50;3.13;;;;;;;22.52;31.12;93358.03;5128513;27;20035;-71
2021/04/28 11:33:16;;;;;;;12.05;3.85;;;;;;;22.84;31.15;93360.47;5121094;27;20019;-69
2021/04/28 11:35:44;;;;;;;7.38;3.15;;;;;;;22.80;30.14;93346.91;5121457;27;20084;-70